sensor_id;sensor_type;location;lat;lon;timestamp;P1;durP1;ratioP1;P2;durP2;ratioP2
7899;SDS011;3995;50.856;4.404;2022-07-05T00:00:24;5.33;;;2.43;;
7899;SDS011;3995;50.856;4.404;2022-07-05T00:02:52;4.17;;;2.37;;
7899;SDS011;3995;50.856;4.404;2022-07-05T00:05:19;3.07;;;2.00;;
7899;SDS011;3995;50.856;4.404;2022-07-05T00:07:47;4.90;;;1.70;;
7899;SDS011;3995;50.856;4.404;2022-07-05T00:10:14;2.40;;;2.03;;
7899;SDS011;3995;50.856;4.404;2022-07-05T00:12:41;6.03;;;1.90;;
7899;SDS011;3995;50.856;4.404;2022-07-05T00:15:08;4.10;;;2.00;;
7899;SDS011;3995;50.856;4.404;2022-07-05T00:17:39;3.90;;;2.30;;
7899;SDS011;3995;50.856;4.404;2022-07-05T00:20:07;4.10;;;2.10;;
7899;SDS011;3995;50.856;4.404;2022-07-05T00:22:35;3.17;;;2.10;;
7899;SDS011;3995;50.856;4.404;2022-07-05T00:25:03;4.10;;;2.13;;
7899;SDS011;3995;50.856;4.404;2022-07-05T00:27:30;3.47;;;1.80;;
7899;SDS011;3995;50.856;4.404;2022-07-05T00:29:57;4.43;;;2.33;;
7899;SDS011;3995;50.856;4.404;2022-07-05T00:32:24;7.13;;;2.20;;
7899;SDS011;3995;50.856;4.404;2022-07-05T00:34:53;8.23;;;2.70;;
7899;SDS011;3995;50.856;4.404;2022-07-05T00:37:20;4.03;;;1.87;;
7899;SDS011;3995;50.856;4.404;2022-07-05T00:39:48;4.90;;;2.50;;
7899;SDS011;3995;50.856;4.404;2022-07-05T00:42:15;6.47;;;1.87;;
7899;SDS011;3995;50.856;4.404;2022-07-05T00:44:45;3.63;;;2.27;;
7899;SDS011;3995;50.856;4.404;2022-07-05T00:47:12;6.63;;;2.67;;
7899;SDS011;3995;50.856;4.404;2022-07-05T00:49:41;3.77;;;2.20;;
7899;SDS011;3995;50.856;4.404;2022-07-05T00:52:10;2.70;;;1.80;;
7899;SDS011;3995;50.856;4.404;2022-07-05T00:54:39;7.47;;;1.90;;
7899;SDS011;3995;50.856;4.404;2022-07-05T00:57:06;3.00;;;2.10;;
7899;SDS011;3995;50.856;4.404;2022-07-05T00:59:33;3.73;;;1.97;;
7899;SDS011;3995;50.856;4.404;2022-07-05T01:02:00;3.93;;;2.20;;
7899;SDS011;3995;50.856;4.404;2022-07-05T01:04:28;5.60;;;2.17;;
7899;SDS011;3995;50.856;4.404;2022-07-05T01:06:55;4.03;;;2.50;;
7899;SDS011;3995;50.856;4.404;2022-07-05T01:09:25;3.00;;;1.80;;
7899;SDS011;3995;50.856;4.404;2022-07-05T01:11:52;3.73;;;1.83;;
7899;SDS011;3995;50.856;4.404;2022-07-05T01:14:20;2.90;;;1.87;;
7899;SDS011;3995;50.856;4.404;2022-07-05T01:16:48;4.20;;;2.10;;
7899;SDS011;3995;50.856;4.404;2022-07-05T01:19:17;6.03;;;2.23;;
7899;SDS011;3995;50.856;4.404;2022-07-05T01:21:46;4.07;;;2.30;;
7899;SDS011;3995;50.856;4.404;2022-07-05T01:24:16;3.83;;;2.00;;
7899;SDS011;3995;50.856;4.404;2022-07-05T01:26:45;7.23;;;2.33;;
7899;SDS011;3995;50.856;4.404;2022-07-05T01:29:14;6.03;;;2.23;;
7899;SDS011;3995;50.856;4.404;2022-07-05T01:31:42;6.90;;;2.60;;
7899;SDS011;3995;50.856;4.404;2022-07-05T01:34:12;3.00;;;2.00;;
7899;SDS011;3995;50.856;4.404;2022-07-05T01:36:39;3.90;;;2.07;;
7899;SDS011;3995;50.856;4.404;2022-07-05T01:39:07;4.73;;;2.17;;
7899;SDS011;3995;50.856;4.404;2022-07-05T01:41:36;5.20;;;2.27;;
7899;SDS011;3995;50.856;4.404;2022-07-05T01:44:03;5.50;;;2.13;;
7899;SDS011;3995;50.856;4.404;2022-07-05T01:46:32;5.33;;;2.43;;
7899;SDS011;3995;50.856;4.404;2022-07-05T01:49:03;3.80;;;1.93;;
7899;SDS011;3995;50.856;4.404;2022-07-05T01:51:33;4.70;;;2.53;;
7899;SDS011;3995;50.856;4.404;2022-07-05T01:54:04;5.43;;;2.93;;
7899;SDS011;3995;50.856;4.404;2022-07-05T01:56:31;6.00;;;2.60;;
7899;SDS011;3995;50.856;4.404;2022-07-05T01:59:00;5.93;;;2.43;;
7899;SDS011;3995;50.856;4.404;2022-07-05T02:01:31;5.20;;;2.70;;
7899;SDS011;3995;50.856;4.404;2022-07-05T02:04:00;7.70;;;2.33;;
7899;SDS011;3995;50.856;4.404;2022-07-05T02:06:30;4.17;;;2.10;;
7899;SDS011;3995;50.856;4.404;2022-07-05T02:08:58;3.60;;;2.03;;
7899;SDS011;3995;50.856;4.404;2022-07-05T02:11:25;6.40;;;2.50;;
7899;SDS011;3995;50.856;4.404;2022-07-05T02:13:55;4.37;;;1.90;;
7899;SDS011;3995;50.856;4.404;2022-07-05T02:16:25;4.43;;;2.07;;
7899;SDS011;3995;50.856;4.404;2022-07-05T02:18:53;6.10;;;2.47;;
7899;SDS011;3995;50.856;4.404;2022-07-05T02:21:20;3.90;;;2.10;;
7899;SDS011;3995;50.856;4.404;2022-07-05T02:23:48;5.00;;;2.63;;
7899;SDS011;3995;50.856;4.404;2022-07-05T02:26:15;4.03;;;2.30;;
7899;SDS011;3995;50.856;4.404;2022-07-05T02:28:42;4.73;;;2.20;;
7899;SDS011;3995;50.856;4.404;2022-07-05T02:31:10;7.47;;;2.00;;
7899;SDS011;3995;50.856;4.404;2022-07-05T02:33:39;4.77;;;2.50;;
7899;SDS011;3995;50.856;4.404;2022-07-05T02:36:17;3.40;;;2.67;;
7899;SDS011;3995;50.856;4.404;2022-07-05T02:38:44;4.80;;;2.53;;
7899;SDS011;3995;50.856;4.404;2022-07-05T02:41:11;4.67;;;2.20;;
7899;SDS011;3995;50.856;4.404;2022-07-05T02:43:39;4.07;;;2.30;;
7899;SDS011;3995;50.856;4.404;2022-07-05T02:46:06;8.37;;;2.60;;
7899;SDS011;3995;50.856;4.404;2022-07-05T02:48:35;5.73;;;2.50;;
7899;SDS011;3995;50.856;4.404;2022-07-05T02:51:04;10.10;;;2.80;;
7899;SDS011;3995;50.856;4.404;2022-07-05T02:53:31;6.10;;;2.20;;
7899;SDS011;3995;50.856;4.404;2022-07-05T02:55:59;5.50;;;2.60;;
7899;SDS011;3995;50.856;4.404;2022-07-05T02:58:26;6.00;;;2.17;;
7899;SDS011;3995;50.856;4.404;2022-07-05T03:00:53;4.97;;;2.63;;
7899;SDS011;3995;50.856;4.404;2022-07-05T03:03:21;7.63;;;3.10;;
7899;SDS011;3995;50.856;4.404;2022-07-05T03:05:49;3.40;;;2.10;;
7899;SDS011;3995;50.856;4.404;2022-07-05T03:08:17;5.00;;;2.67;;
7899;SDS011;3995;50.856;4.404;2022-07-05T03:10:45;5.60;;;2.80;;
7899;SDS011;3995;50.856;4.404;2022-07-05T03:13:12;6.57;;;2.77;;
7899;SDS011;3995;50.856;4.404;2022-07-05T03:15:39;5.10;;;2.70;;
7899;SDS011;3995;50.856;4.404;2022-07-05T03:18:07;5.73;;;3.10;;
7899;SDS011;3995;50.856;4.404;2022-07-05T03:20:35;9.77;;;2.70;;
7899;SDS011;3995;50.856;4.404;2022-07-05T03:23:04;4.50;;;2.80;;
7899;SDS011;3995;50.856;4.404;2022-07-05T03:25:33;6.43;;;3.03;;
7899;SDS011;3995;50.856;4.404;2022-07-05T03:28:03;6.47;;;3.00;;
7899;SDS011;3995;50.856;4.404;2022-07-05T03:30:30;7.30;;;2.20;;
7899;SDS011;3995;50.856;4.404;2022-07-05T03:32:58;4.73;;;3.00;;
7899;SDS011;3995;50.856;4.404;2022-07-05T03:35:26;5.47;;;2.50;;
7899;SDS011;3995;50.856;4.404;2022-07-05T03:37:53;9.07;;;3.10;;
7899;SDS011;3995;50.856;4.404;2022-07-05T03:40:20;8.30;;;2.70;;
7899;SDS011;3995;50.856;4.404;2022-07-05T03:42:49;5.00;;;2.30;;
7899;SDS011;3995;50.856;4.404;2022-07-05T03:45:16;5.50;;;2.67;;
7899;SDS011;3995;50.856;4.404;2022-07-05T03:47:43;3.70;;;2.47;;
7899;SDS011;3995;50.856;4.404;2022-07-05T03:50:10;3.47;;;2.10;;
7899;SDS011;3995;50.856;4.404;2022-07-05T03:52:38;8.13;;;2.60;;
7899;SDS011;3995;50.856;4.404;2022-07-05T03:55:05;4.80;;;2.63;;
7899;SDS011;3995;50.856;4.404;2022-07-05T03:57:33;5.50;;;2.60;;
7899;SDS011;3995;50.856;4.404;2022-07-05T04:00:01;7.53;;;2.90;;
7899;SDS011;3995;50.856;4.404;2022-07-05T04:02:29;8.00;;;3.17;;
7899;SDS011;3995;50.856;4.404;2022-07-05T04:04:56;6.27;;;2.37;;
7899;SDS011;3995;50.856;4.404;2022-07-05T04:07:23;5.53;;;2.60;;
7899;SDS011;3995;50.856;4.404;2022-07-05T04:09:51;4.23;;;2.47;;
7899;SDS011;3995;50.856;4.404;2022-07-05T04:12:18;5.00;;;2.63;;
7899;SDS011;3995;50.856;4.404;2022-07-05T04:14:45;3.33;;;2.40;;
7899;SDS011;3995;50.856;4.404;2022-07-05T04:17:14;11.50;;;2.60;;
7899;SDS011;3995;50.856;4.404;2022-07-05T04:19:41;5.40;;;2.30;;
7899;SDS011;3995;50.856;4.404;2022-07-05T04:22:08;3.90;;;2.20;;
7899;SDS011;3995;50.856;4.404;2022-07-05T04:24:35;4.17;;;2.20;;
7899;SDS011;3995;50.856;4.404;2022-07-05T04:27:22;5.27;;;2.73;;
7899;SDS011;3995;50.856;4.404;2022-07-05T04:29:49;8.13;;;2.93;;
7899;SDS011;3995;50.856;4.404;2022-07-05T04:32:18;3.47;;;2.67;;
7899;SDS011;3995;50.856;4.404;2022-07-05T04:34:46;10.00;;;3.23;;
7899;SDS011;3995;50.856;4.404;2022-07-05T04:37:13;3.67;;;2.90;;
7899;SDS011;3995;50.856;4.404;2022-07-05T04:39:40;11.90;;;3.47;;
7899;SDS011;3995;50.856;4.404;2022-07-05T04:42:07;5.27;;;3.20;;
7899;SDS011;3995;50.856;4.404;2022-07-05T04:44:34;5.20;;;3.10;;
7899;SDS011;3995;50.856;4.404;2022-07-05T04:47:01;5.70;;;3.40;;
7899;SDS011;3995;50.856;4.404;2022-07-05T04:49:30;7.70;;;3.60;;
7899;SDS011;3995;50.856;4.404;2022-07-05T04:51:57;5.70;;;3.30;;
7899;SDS011;3995;50.856;4.404;2022-07-05T04:54:24;8.37;;;3.40;;
7899;SDS011;3995;50.856;4.404;2022-07-05T04:56:52;5.63;;;3.23;;
7899;SDS011;3995;50.856;4.404;2022-07-05T04:59:19;6.40;;;3.63;;
7899;SDS011;3995;50.856;4.404;2022-07-05T05:01:46;5.20;;;2.70;;
7899;SDS011;3995;50.856;4.404;2022-07-05T05:04:13;7.60;;;3.43;;
7899;SDS011;3995;50.856;4.404;2022-07-05T05:06:42;6.87;;;3.90;;
7899;SDS011;3995;50.856;4.404;2022-07-05T05:09:10;5.93;;;2.87;;
7899;SDS011;3995;50.856;4.404;2022-07-05T05:11:37;6.03;;;3.40;;
7899;SDS011;3995;50.856;4.404;2022-07-05T05:14:03;6.07;;;3.60;;
7899;SDS011;3995;50.856;4.404;2022-07-05T05:16:33;5.23;;;2.80;;
7899;SDS011;3995;50.856;4.404;2022-07-05T05:19:00;9.50;;;5.00;;
7899;SDS011;3995;50.856;4.404;2022-07-05T05:21:27;5.37;;;2.73;;
7899;SDS011;3995;50.856;4.404;2022-07-05T05:23:56;7.23;;;2.93;;
7899;SDS011;3995;50.856;4.404;2022-07-05T05:26:23;8.83;;;3.83;;
7899;SDS011;3995;50.856;4.404;2022-07-05T05:28:50;5.83;;;3.40;;
7899;SDS011;3995;50.856;4.404;2022-07-05T05:31:18;7.27;;;3.00;;
7899;SDS011;3995;50.856;4.404;2022-07-05T05:33:45;12.70;;;3.37;;
7899;SDS011;3995;50.856;4.404;2022-07-05T05:36:12;8.93;;;3.13;;
7899;SDS011;3995;50.856;4.404;2022-07-05T05:38:40;6.40;;;2.93;;
7899;SDS011;3995;50.856;4.404;2022-07-05T05:41:09;6.70;;;3.33;;
7899;SDS011;3995;50.856;4.404;2022-07-05T05:43:36;5.07;;;2.60;;
7899;SDS011;3995;50.856;4.404;2022-07-05T05:46:03;7.00;;;3.30;;
7899;SDS011;3995;50.856;4.404;2022-07-05T05:48:31;6.50;;;2.67;;
7899;SDS011;3995;50.856;4.404;2022-07-05T05:50:58;15.90;;;3.33;;
7899;SDS011;3995;50.856;4.404;2022-07-05T05:53:26;7.80;;;3.23;;
7899;SDS011;3995;50.856;4.404;2022-07-05T05:55:53;7.23;;;2.63;;
7899;SDS011;3995;50.856;4.404;2022-07-05T05:58:22;4.97;;;2.70;;
7899;SDS011;3995;50.856;4.404;2022-07-05T06:00:49;7.20;;;2.60;;
7899;SDS011;3995;50.856;4.404;2022-07-05T06:03:17;12.20;;;3.67;;
7899;SDS011;3995;50.856;4.404;2022-07-05T06:05:45;5.30;;;2.87;;
7899;SDS011;3995;50.856;4.404;2022-07-05T06:08:13;5.67;;;3.50;;
7899;SDS011;3995;50.856;4.404;2022-07-05T06:10:41;7.20;;;3.30;;
7899;SDS011;3995;50.856;4.404;2022-07-05T06:13:10;7.63;;;3.47;;
7899;SDS011;3995;50.856;4.404;2022-07-05T06:15:40;6.70;;;3.80;;
7899;SDS011;3995;50.856;4.404;2022-07-05T06:18:09;5.80;;;3.07;;
7899;SDS011;3995;50.856;4.404;2022-07-05T06:20:37;5.70;;;3.33;;
7899;SDS011;3995;50.856;4.404;2022-07-05T06:23:06;11.00;;;3.20;;
7899;SDS011;3995;50.856;4.404;2022-07-05T06:25:33;6.50;;;3.40;;
7899;SDS011;3995;50.856;4.404;2022-07-05T06:28:04;7.47;;;3.80;;
7899;SDS011;3995;50.856;4.404;2022-07-05T06:30:33;7.47;;;3.60;;
7899;SDS011;3995;50.856;4.404;2022-07-05T06:33:04;7.37;;;3.10;;
7899;SDS011;3995;50.856;4.404;2022-07-05T06:35:32;11.57;;;3.00;;
7899;SDS011;3995;50.856;4.404;2022-07-05T06:37:59;8.63;;;3.90;;
7899;SDS011;3995;50.856;4.404;2022-07-05T06:40:27;15.70;;;3.20;;
7899;SDS011;3995;50.856;4.404;2022-07-05T06:42:57;11.63;;;3.80;;
7899;SDS011;3995;50.856;4.404;2022-07-05T06:45:26;10.87;;;3.37;;
7899;SDS011;3995;50.856;4.404;2022-07-05T06:47:54;10.67;;;3.60;;
7899;SDS011;3995;50.856;4.404;2022-07-05T06:50:23;14.60;;;3.80;;
7899;SDS011;3995;50.856;4.404;2022-07-05T06:52:50;14.50;;;3.77;;
7899;SDS011;3995;50.856;4.404;2022-07-05T06:55:18;8.40;;;3.07;;
7899;SDS011;3995;50.856;4.404;2022-07-05T06:57:45;8.70;;;3.27;;
7899;SDS011;3995;50.856;4.404;2022-07-05T07:00:13;7.80;;;3.70;;
7899;SDS011;3995;50.856;4.404;2022-07-05T07:02:40;9.53;;;3.37;;
7899;SDS011;3995;50.856;4.404;2022-07-05T07:05:08;6.07;;;3.10;;
7899;SDS011;3995;50.856;4.404;2022-07-05T07:07:37;7.03;;;2.93;;
7899;SDS011;3995;50.856;4.404;2022-07-05T07:10:21;7.90;;;3.23;;
7899;SDS011;3995;50.856;4.404;2022-07-05T07:12:49;8.73;;;3.50;;
7899;SDS011;3995;50.856;4.404;2022-07-05T07:15:16;6.53;;;3.47;;
7899;SDS011;3995;50.856;4.404;2022-07-05T07:17:43;6.27;;;2.83;;
7899;SDS011;3995;50.856;4.404;2022-07-05T07:20:11;8.80;;;3.47;;
7899;SDS011;3995;50.856;4.404;2022-07-05T07:22:40;7.80;;;3.50;;
7899;SDS011;3995;50.856;4.404;2022-07-05T07:25:07;6.50;;;3.53;;
7899;SDS011;3995;50.856;4.404;2022-07-05T07:27:42;18.60;;;3.13;;
7899;SDS011;3995;50.856;4.404;2022-07-05T07:30:11;7.33;;;3.33;;
7899;SDS011;3995;50.856;4.404;2022-07-05T07:32:41;10.50;;;3.93;;
7899;SDS011;3995;50.856;4.404;2022-07-05T07:35:08;10.50;;;3.10;;
7899;SDS011;3995;50.856;4.404;2022-07-05T07:37:36;6.57;;;3.77;;
7899;SDS011;3995;50.856;4.404;2022-07-05T07:40:06;10.40;;;4.17;;
7899;SDS011;3995;50.856;4.404;2022-07-05T07:42:34;6.87;;;3.70;;
7899;SDS011;3995;50.856;4.404;2022-07-05T07:45:01;8.43;;;4.10;;
7899;SDS011;3995;50.856;4.404;2022-07-05T07:47:29;10.87;;;4.70;;
7899;SDS011;3995;50.856;4.404;2022-07-05T07:49:56;15.40;;;4.23;;
7899;SDS011;3995;50.856;4.404;2022-07-05T07:52:23;7.87;;;3.40;;
7899;SDS011;3995;50.856;4.404;2022-07-05T07:54:50;10.70;;;3.30;;
7899;SDS011;3995;50.856;4.404;2022-07-05T07:57:19;10.77;;;4.17;;
7899;SDS011;3995;50.856;4.404;2022-07-05T07:59:46;6.67;;;3.40;;
7899;SDS011;3995;50.856;4.404;2022-07-05T08:02:14;11.57;;;4.97;;
7899;SDS011;3995;50.856;4.404;2022-07-05T08:04:42;12.57;;;4.40;;
7899;SDS011;3995;50.856;4.404;2022-07-05T08:07:09;8.97;;;4.00;;
7899;SDS011;3995;50.856;4.404;2022-07-05T08:09:37;10.20;;;3.80;;
7899;SDS011;3995;50.856;4.404;2022-07-05T08:12:04;6.10;;;4.50;;
7899;SDS011;3995;50.856;4.404;2022-07-05T08:14:34;8.50;;;4.47;;
7899;SDS011;3995;50.856;4.404;2022-07-05T08:17:02;10.67;;;3.90;;
7899;SDS011;3995;50.856;4.404;2022-07-05T08:19:33;10.80;;;3.47;;
7899;SDS011;3995;50.856;4.404;2022-07-05T08:22:32;11.47;;;3.27;;
7899;SDS011;3995;50.856;4.404;2022-07-05T08:24:59;8.70;;;3.83;;
7899;SDS011;3995;50.856;4.404;2022-07-05T08:27:27;9.20;;;4.50;;
7899;SDS011;3995;50.856;4.404;2022-07-05T08:29:55;20.47;;;4.60;;
7899;SDS011;3995;50.856;4.404;2022-07-05T08:32:23;8.27;;;4.20;;
7899;SDS011;3995;50.856;4.404;2022-07-05T08:34:50;13.17;;;4.20;;
7899;SDS011;3995;50.856;4.404;2022-07-05T08:37:18;9.70;;;4.17;;
7899;SDS011;3995;50.856;4.404;2022-07-05T08:39:45;11.30;;;4.93;;
7899;SDS011;3995;50.856;4.404;2022-07-05T08:42:12;7.23;;;4.50;;
7899;SDS011;3995;50.856;4.404;2022-07-05T08:44:41;8.27;;;4.00;;
7899;SDS011;3995;50.856;4.404;2022-07-05T08:47:11;7.83;;;3.67;;
7899;SDS011;3995;50.856;4.404;2022-07-05T08:49:39;10.43;;;5.57;;
7899;SDS011;3995;50.856;4.404;2022-07-05T08:52:07;12.63;;;5.33;;
7899;SDS011;3995;50.856;4.404;2022-07-05T08:54:37;19.07;;;5.30;;
7899;SDS011;3995;50.856;4.404;2022-07-05T08:57:05;11.10;;;6.37;;
7899;SDS011;3995;50.856;4.404;2022-07-05T08:59:32;7.60;;;4.90;;
7899;SDS011;3995;50.856;4.404;2022-07-05T09:01:59;7.13;;;4.07;;
7899;SDS011;3995;50.856;4.404;2022-07-05T09:04:30;9.37;;;4.60;;
7899;SDS011;3995;50.856;4.404;2022-07-05T09:07:03;8.50;;;4.53;;
7899;SDS011;3995;50.856;4.404;2022-07-05T09:09:32;11.30;;;3.97;;
7899;SDS011;3995;50.856;4.404;2022-07-05T09:12:00;5.60;;;3.20;;
7899;SDS011;3995;50.856;4.404;2022-07-05T09:14:27;6.83;;;2.83;;
7899;SDS011;3995;50.856;4.404;2022-07-05T09:16:54;7.17;;;3.40;;
7899;SDS011;3995;50.856;4.404;2022-07-05T09:19:22;7.40;;;2.67;;
7899;SDS011;3995;50.856;4.404;2022-07-05T09:21:51;7.23;;;2.77;;
7899;SDS011;3995;50.856;4.404;2022-07-05T09:24:28;8.00;;;3.43;;
7899;SDS011;3995;50.856;4.404;2022-07-05T09:27:01;8.60;;;3.10;;
7899;SDS011;3995;50.856;4.404;2022-07-05T09:29:29;15.43;;;3.40;;
7899;SDS011;3995;50.856;4.404;2022-07-05T09:31:56;8.20;;;3.27;;
7899;SDS011;3995;50.856;4.404;2022-07-05T09:34:26;8.73;;;3.33;;
7899;SDS011;3995;50.856;4.404;2022-07-05T09:36:57;6.77;;;3.20;;
7899;SDS011;3995;50.856;4.404;2022-07-05T09:39:38;6.53;;;3.30;;
7899;SDS011;3995;50.856;4.404;2022-07-05T09:42:12;9.97;;;3.67;;
7899;SDS011;3995;50.856;4.404;2022-07-05T09:44:43;9.90;;;3.47;;
7899;SDS011;3995;50.856;4.404;2022-07-05T09:47:12;10.80;;;3.13;;
7899;SDS011;3995;50.856;4.404;2022-07-05T09:49:41;12.30;;;3.47;;
7899;SDS011;3995;50.856;4.404;2022-07-05T09:52:11;5.93;;;3.57;;
7899;SDS011;3995;50.856;4.404;2022-07-05T09:54:59;5.30;;;3.20;;
7899;SDS011;3995;50.856;4.404;2022-07-05T09:57:28;5.33;;;3.30;;
7899;SDS011;3995;50.856;4.404;2022-07-05T09:59:57;7.10;;;4.00;;
7899;SDS011;3995;50.856;4.404;2022-07-05T10:02:36;8.73;;;3.70;;
7899;SDS011;3995;50.856;4.404;2022-07-05T10:05:11;6.10;;;3.17;;
7899;SDS011;3995;50.856;4.404;2022-07-05T10:07:41;5.70;;;3.03;;
7899;SDS011;3995;50.856;4.404;2022-07-05T10:10:11;5.80;;;3.07;;
7899;SDS011;3995;50.856;4.404;2022-07-05T10:12:39;5.70;;;2.77;;
7899;SDS011;3995;50.856;4.404;2022-07-05T10:15:08;7.67;;;3.40;;
7899;SDS011;3995;50.856;4.404;2022-07-05T10:17:37;7.47;;;3.20;;
7899;SDS011;3995;50.856;4.404;2022-07-05T10:20:11;6.73;;;3.93;;
7899;SDS011;3995;50.856;4.404;2022-07-05T10:22:47;11.50;;;3.33;;
7899;SDS011;3995;50.856;4.404;2022-07-05T10:25:15;5.87;;;3.33;;
7899;SDS011;3995;50.856;4.404;2022-07-05T10:27:42;10.13;;;3.37;;
7899;SDS011;3995;50.856;4.404;2022-07-05T10:30:10;11.17;;;4.10;;
7899;SDS011;3995;50.856;4.404;2022-07-05T10:32:38;10.40;;;3.23;;
7899;SDS011;3995;50.856;4.404;2022-07-05T10:35:06;5.20;;;2.97;;
7899;SDS011;3995;50.856;4.404;2022-07-05T10:37:34;8.43;;;2.63;;
7899;SDS011;3995;50.856;4.404;2022-07-05T10:40:03;6.80;;;2.90;;
7899;SDS011;3995;50.856;4.404;2022-07-05T10:42:35;6.23;;;3.23;;
7899;SDS011;3995;50.856;4.404;2022-07-05T10:45:24;5.67;;;2.80;;
7899;SDS011;3995;50.856;4.404;2022-07-05T10:50:42;5.53;;;3.20;;
7899;SDS011;3995;50.856;4.404;2022-07-05T10:53:16;7.33;;;2.83;;
7899;SDS011;3995;50.856;4.404;2022-07-05T10:55:49;7.73;;;2.90;;
7899;SDS011;3995;50.856;4.404;2022-07-05T10:58:27;5.93;;;2.70;;
7899;SDS011;3995;50.856;4.404;2022-07-05T11:06:57;12.33;;;3.10;;
7899;SDS011;3995;50.856;4.404;2022-07-05T11:09:25;3.50;;;2.30;;
7899;SDS011;3995;50.856;4.404;2022-07-05T11:12:07;3.13;;;2.27;;
7899;SDS011;3995;50.856;4.404;2022-07-05T11:14:44;5.47;;;2.30;;
7899;SDS011;3995;50.856;4.404;2022-07-05T11:17:19;4.90;;;2.37;;
7899;SDS011;3995;50.856;4.404;2022-07-05T11:20:05;3.67;;;2.20;;
7899;SDS011;3995;50.856;4.404;2022-07-05T11:22:34;5.40;;;2.13;;
7899;SDS011;3995;50.856;4.404;2022-07-05T11:25:04;4.43;;;1.90;;
7899;SDS011;3995;50.856;4.404;2022-07-05T11:27:34;3.23;;;1.70;;
7899;SDS011;3995;50.856;4.404;2022-07-05T11:30:01;4.20;;;1.93;;
7899;SDS011;3995;50.856;4.404;2022-07-05T11:32:36;4.00;;;1.83;;
7899;SDS011;3995;50.856;4.404;2022-07-05T11:35:14;2.83;;;1.70;;
7899;SDS011;3995;50.856;4.404;2022-07-05T11:40:29;8.20;;;1.93;;
7899;SDS011;3995;50.856;4.404;2022-07-05T11:42:59;3.50;;;1.80;;
7899;SDS011;3995;50.856;4.404;2022-07-05T11:45:28;3.50;;;1.80;;
7899;SDS011;3995;50.856;4.404;2022-07-05T11:47:56;7.47;;;2.40;;
7899;SDS011;3995;50.856;4.404;2022-07-05T11:50:30;4.20;;;1.80;;
7899;SDS011;3995;50.856;4.404;2022-07-05T11:52:58;5.50;;;2.50;;
7899;SDS011;3995;50.856;4.404;2022-07-05T11:55:26;4.80;;;2.20;;
7899;SDS011;3995;50.856;4.404;2022-07-05T11:57:55;6.77;;;2.27;;
7899;SDS011;3995;50.856;4.404;2022-07-05T12:00:31;4.13;;;1.90;;
7899;SDS011;3995;50.856;4.404;2022-07-05T12:03:00;4.00;;;1.73;;
7899;SDS011;3995;50.856;4.404;2022-07-05T12:05:36;5.37;;;2.30;;
7899;SDS011;3995;50.856;4.404;2022-07-05T12:08:03;6.83;;;1.87;;
7899;SDS011;3995;50.856;4.404;2022-07-05T12:10:31;4.50;;;2.00;;
7899;SDS011;3995;50.856;4.404;2022-07-05T12:13:15;5.50;;;2.03;;
7899;SDS011;3995;50.856;4.404;2022-07-05T12:15:47;5.17;;;2.17;;
7899;SDS011;3995;50.856;4.404;2022-07-05T12:18:14;4.93;;;2.07;;
7899;SDS011;3995;50.856;4.404;2022-07-05T12:20:42;10.70;;;2.07;;
7899;SDS011;3995;50.856;4.404;2022-07-05T12:23:09;9.13;;;3.43;;
7899;SDS011;3995;50.856;4.404;2022-07-05T12:25:37;7.87;;;2.40;;
7899;SDS011;3995;50.856;4.404;2022-07-05T12:28:04;5.67;;;2.20;;
7899;SDS011;3995;50.856;4.404;2022-07-05T12:30:36;4.77;;;2.50;;
7899;SDS011;3995;50.856;4.404;2022-07-05T12:33:05;6.33;;;2.97;;
7899;SDS011;3995;50.856;4.404;2022-07-05T12:35:35;4.93;;;1.97;;
7899;SDS011;3995;50.856;4.404;2022-07-05T12:38:06;7.07;;;2.00;;
7899;SDS011;3995;50.856;4.404;2022-07-05T12:40:35;8.77;;;2.73;;
7899;SDS011;3995;50.856;4.404;2022-07-05T12:43:07;4.50;;;2.33;;
7899;SDS011;3995;50.856;4.404;2022-07-05T12:45:35;7.30;;;2.20;;
7899;SDS011;3995;50.856;4.404;2022-07-05T12:48:06;5.93;;;2.07;;
7899;SDS011;3995;50.856;4.404;2022-07-05T12:50:44;5.20;;;2.20;;
7899;SDS011;3995;50.856;4.404;2022-07-05T12:53:12;2.93;;;1.87;;
7899;SDS011;3995;50.856;4.404;2022-07-05T12:55:58;3.10;;;2.03;;
7899;SDS011;3995;50.856;4.404;2022-07-05T12:58:44;6.30;;;1.90;;
7899;SDS011;3995;50.856;4.404;2022-07-05T13:01:21;5.23;;;2.60;;
7899;SDS011;3995;50.856;4.404;2022-07-05T13:04:01;6.30;;;2.67;;
7899;SDS011;3995;50.856;4.404;2022-07-05T13:06:44;3.13;;;2.27;;
7899;SDS011;3995;50.856;4.404;2022-07-05T13:09:14;5.23;;;1.57;;
7899;SDS011;3995;50.856;4.404;2022-07-05T13:11:43;4.70;;;2.10;;
7899;SDS011;3995;50.856;4.404;2022-07-05T13:14:11;4.23;;;2.30;;
7899;SDS011;3995;50.856;4.404;2022-07-05T13:16:38;10.10;;;2.63;;
7899;SDS011;3995;50.856;4.404;2022-07-05T13:19:10;3.80;;;2.10;;
7899;SDS011;3995;50.856;4.404;2022-07-05T13:21:38;7.50;;;2.20;;
7899;SDS011;3995;50.856;4.404;2022-07-05T13:24:05;4.77;;;2.77;;
7899;SDS011;3995;50.856;4.404;2022-07-05T13:26:33;10.37;;;2.13;;
7899;SDS011;3995;50.856;4.404;2022-07-05T13:29:00;3.40;;;1.97;;
7899;SDS011;3995;50.856;4.404;2022-07-05T13:31:28;3.17;;;1.63;;
7899;SDS011;3995;50.856;4.404;2022-07-05T13:33:56;5.30;;;2.00;;
7899;SDS011;3995;50.856;4.404;2022-07-05T13:36:25;6.40;;;2.07;;
7899;SDS011;3995;50.856;4.404;2022-07-05T13:38:53;11.70;;;2.30;;
7899;SDS011;3995;50.856;4.404;2022-07-05T13:41:20;5.60;;;1.77;;
7899;SDS011;3995;50.856;4.404;2022-07-05T13:43:47;4.50;;;1.90;;
7899;SDS011;3995;50.856;4.404;2022-07-05T13:46:16;3.07;;;2.00;;
7899;SDS011;3995;50.856;4.404;2022-07-05T13:48:43;4.13;;;1.50;;
7899;SDS011;3995;50.856;4.404;2022-07-05T13:51:10;7.70;;;1.50;;
7899;SDS011;3995;50.856;4.404;2022-07-05T13:53:41;7.83;;;1.90;;
7899;SDS011;3995;50.856;4.404;2022-07-05T13:56:08;2.77;;;1.50;;
7899;SDS011;3995;50.856;4.404;2022-07-05T13:58:36;5.83;;;2.27;;
7899;SDS011;3995;50.856;4.404;2022-07-05T14:01:03;3.60;;;1.43;;
7899;SDS011;3995;50.856;4.404;2022-07-05T14:03:30;8.37;;;1.50;;
7899;SDS011;3995;50.856;4.404;2022-07-05T14:05:57;2.23;;;1.40;;
7899;SDS011;3995;50.856;4.404;2022-07-05T14:08:25;5.80;;;1.87;;
7899;SDS011;3995;50.856;4.404;2022-07-05T14:10:54;2.70;;;1.40;;
7899;SDS011;3995;50.856;4.404;2022-07-05T14:13:23;11.00;;;2.17;;
7899;SDS011;3995;50.856;4.404;2022-07-05T14:15:52;7.03;;;1.90;;
7899;SDS011;3995;50.856;4.404;2022-07-05T14:18:20;4.33;;;1.40;;
7899;SDS011;3995;50.856;4.404;2022-07-05T14:20:49;7.17;;;1.83;;
7899;SDS011;3995;50.856;4.404;2022-07-05T14:23:17;5.20;;;1.63;;
7899;SDS011;3995;50.856;4.404;2022-07-05T14:25:44;4.03;;;2.00;;
7899;SDS011;3995;50.856;4.404;2022-07-05T14:28:13;5.53;;;2.00;;
7899;SDS011;3995;50.856;4.404;2022-07-05T14:30:41;3.40;;;1.97;;
7899;SDS011;3995;50.856;4.404;2022-07-05T14:33:09;5.70;;;1.80;;
7899;SDS011;3995;50.856;4.404;2022-07-05T14:35:39;3.00;;;1.33;;
7899;SDS011;3995;50.856;4.404;2022-07-05T14:38:07;9.03;;;2.13;;
7899;SDS011;3995;50.856;4.404;2022-07-05T14:40:35;4.27;;;1.77;;
7899;SDS011;3995;50.856;4.404;2022-07-05T14:43:02;5.57;;;1.50;;
7899;SDS011;3995;50.856;4.404;2022-07-05T14:45:31;9.13;;;1.83;;
7899;SDS011;3995;50.856;4.404;2022-07-05T14:47:58;3.33;;;1.70;;
7899;SDS011;3995;50.856;4.404;2022-07-05T14:50:26;8.10;;;2.00;;
7899;SDS011;3995;50.856;4.404;2022-07-05T14:52:53;3.20;;;1.77;;
7899;SDS011;3995;50.856;4.404;2022-07-05T14:55:21;3.70;;;1.60;;
7899;SDS011;3995;50.856;4.404;2022-07-05T14:57:49;3.10;;;1.50;;
7899;SDS011;3995;50.856;4.404;2022-07-05T15:00:16;5.13;;;2.37;;
7899;SDS011;3995;50.856;4.404;2022-07-05T15:02:45;3.23;;;1.47;;
7899;SDS011;3995;50.856;4.404;2022-07-05T15:05:13;4.47;;;1.50;;
7899;SDS011;3995;50.856;4.404;2022-07-05T15:07:40;4.50;;;1.60;;
7899;SDS011;3995;50.856;4.404;2022-07-05T15:10:08;2.17;;;1.50;;
7899;SDS011;3995;50.856;4.404;2022-07-05T15:12:35;2.00;;;1.43;;
7899;SDS011;3995;50.856;4.404;2022-07-05T15:15:03;5.90;;;1.40;;
7899;SDS011;3995;50.856;4.404;2022-07-05T15:17:30;3.43;;;1.40;;
7899;SDS011;3995;50.856;4.404;2022-07-05T15:20:01;5.13;;;1.50;;
7899;SDS011;3995;50.856;4.404;2022-07-05T15:22:29;16.37;;;1.70;;
7899;SDS011;3995;50.856;4.404;2022-07-05T15:24:56;5.00;;;1.70;;
7899;SDS011;3995;50.856;4.404;2022-07-05T15:27:23;3.67;;;1.50;;
7899;SDS011;3995;50.856;4.404;2022-07-05T15:29:51;4.40;;;1.43;;
7899;SDS011;3995;50.856;4.404;2022-07-05T15:32:18;5.07;;;2.07;;
7899;SDS011;3995;50.856;4.404;2022-07-05T15:34:46;8.13;;;1.37;;